Time;durP1;ratioP1;P1;durP2;ratioP2;P2;SDS_P1;SDS_P2;PMS_P1;PMS_P2;Temp;Humidity;BMP_temperature;BMP_pressure;BME280_temperature;BME280_humidity;BME280_pressure;Samples;Min_cycle;Max_cycle;Signal;HPM_P1;HPM_P2
2022/01/09 00:00:10;;;;;;;0.90;0.70;;;4.60;99.90;;;;;;5017999;28;20455;-71
2022/01/09 00:02:38;;;;;;;0.90;0.67;;;4.70;99.90;;;;;;5011580;28;20973;-71
2022/01/09 00:05:05;;;;;;;0.90;0.70;;;4.70;99.90;;;;;;5009255;28;20482;-69
2022/01/09 00:07:32;;;;;;;0.93;0.73;;;4.70;99.90;;;;;;5010291;28;21048;-71
2022/01/09 00:10:02;;;;;;;0.90;0.60;;;4.70;99.90;;;;;;5020632;28;20967;-71
2022/01/09 00:12:29;;;;;;;3.00;1.50;;;4.70;99.90;;;;;;5020680;28;20687;-70
2022/01/09 00:14:58;;;;;;;1.63;1.00;;;4.70;99.90;;;;;;5028879;28;20554;-72
2022/01/09 00:17:25;;;;;;;1.27;1.07;;;4.70;99.90;;;;;;5027259;28;20958;-70
2022/01/09 00:19:52;;;;;;;1.00;0.80;;;4.70;99.90;;;;;;5025561;28;21081;-69
2022/01/09 00:22:28;;;;;;;2.70;0.93;;;4.60;99.90;;;;;;5028207;28;20478;-68
2022/01/09 00:24:55;;;;;;;2.00;0.97;;;4.60;99.90;;;;;;5020322;28;20572;-68
2022/01/09 00:27:22;;;;;;;0.90;0.60;;;4.60;99.90;;;;;;5027614;28;20530;-71
2022/01/09 00:29:49;;;;;;;1.23;0.73;;;4.60;99.90;;;;;;5019595;28;20554;-68
2022/01/09 00:32:17;;;;;;;0.90;0.70;;;4.70;99.90;;;;;;5032002;28;20575;-70
2022/01/09 00:34:44;;;;;;;1.83;1.03;;;4.70;99.90;;;;;;5019086;28;20458;-67
2022/01/09 00:37:12;;;;;;;1.23;0.80;;;4.60;99.90;;;;;;5021352;28;20628;-70
2022/01/09 00:39:39;;;;;;;0.90;0.60;;;4.70;99.90;;;;;;5023173;28;20510;-69
2022/01/09 00:42:06;;;;;;;0.90;0.70;;;4.70;99.90;;;;;;5024903;28;20446;-70
2022/01/09 00:44:34;;;;;;;1.00;0.80;;;4.80;99.90;;;;;;5027393;28;20458;-71
2022/01/09 00:47:01;;;;;;;1.87;1.10;;;5.00;99.90;;;;;;5019882;28;20966;-70
2022/01/09 00:49:29;;;;;;;1.30;1.20;;;4.90;99.90;;;;;;5026737;28;20522;-71
2022/01/09 00:51:56;;;;;;;1.97;1.47;;;4.80;99.90;;;;;;5032252;28;20531;-70
2022/01/09 00:54:24;;;;;;;0.90;0.80;;;4.80;99.90;;;;;;5023549;28;20795;-68
2022/01/09 00:56:51;;;;;;;0.97;0.70;;;4.80;99.90;;;;;;5026413;28;20552;-70
2022/01/09 00:59:18;;;;;;;1.20;0.93;;;4.80;99.90;;;;;;5026244;28;20994;-70
2022/01/09 01:01:45;;;;;;;1.27;1.17;;;4.90;99.90;;;;;;5024512;28;20545;-69
2022/01/09 01:04:12;;;;;;;1.10;1.00;;;4.80;99.90;;;;;;5028403;28;20483;-70
2022/01/09 01:06:40;;;;;;;1.00;0.80;;;4.90;99.90;;;;;;5024667;28;20459;-69
2022/01/09 01:09:07;;;;;;;0.90;0.63;;;4.90;99.90;;;;;;5024107;28;20546;-69
2022/01/09 01:11:34;;;;;;;0.90;0.60;;;5.00;99.90;;;;;;5027811;28;22014;-70
2022/01/09 01:14:01;;;;;;;0.90;0.70;;;5.10;99.90;;;;;;5033820;28;20447;-71
2022/01/09 01:16:28;;;;;;;1.30;0.80;;;5.00;99.90;;;;;;5034785;28;20488;-69
2022/01/09 01:18:55;;;;;;;0.90;0.70;;;5.10;99.90;;;;;;5019283;28;20427;-70
2022/01/09 01:21:24;;;;;;;1.63;0.70;;;5.20;99.90;;;;;;5015860;28;20539;-69
2022/01/09 01:23:53;;;;;;;1.03;0.90;;;5.20;99.90;;;;;;5020129;28;20479;-68
2022/01/09 01:26:23;;;;;;;0.90;0.70;;;5.20;99.90;;;;;;5025356;28;20498;-71
2022/01/09 01:28:49;;;;;;;0.90;0.60;;;5.20;99.90;;;;;;5017789;28;20563;-70
2022/01/09 01:31:16;;;;;;;1.00;0.90;;;5.10;99.90;;;;;;5020878;28;21011;-71
2022/01/09 01:33:43;;;;;;;0.90;0.70;;;5.20;99.90;;;;;;5020854;28;20869;-72
2022/01/09 01:36:10;;;;;;;1.00;0.70;;;5.10;99.90;;;;;;5022450;28;20464;-70
2022/01/09 01:38:37;;;;;;;0.90;0.70;;;5.20;99.90;;;;;;5028355;28;21358;-71
2022/01/09 01:41:06;;;;;;;0.90;0.60;;;5.30;99.90;;;;;;5029519;28;20506;-70
2022/01/09 01:43:33;;;;;;;0.97;0.70;;;5.30;99.90;;;;;;5029087;28;20673;-70
2022/01/09 01:46:02;;;;;;;2.83;1.40;;;5.20;99.90;;;;;;5023162;28;20493;-70
2022/01/09 01:48:30;;;;;;;0.90;0.80;;;5.00;99.90;;;;;;5023120;28;21902;-71
2022/01/09 01:50:57;;;;;;;1.10;0.83;;;5.00;99.90;;;;;;5032626;28;20967;-70
2022/01/09 01:53:25;;;;;;;1.10;0.90;;;5.20;99.90;;;;;;5020277;28;20569;-69
2022/01/09 01:55:55;;;;;;;1.00;0.80;;;5.20;99.90;;;;;;5031225;28;20458;-70
2022/01/09 01:58:26;;;;;;;1.17;0.80;;;5.30;99.90;;;;;;5020978;28;20950;-71
2022/01/09 02:00:53;;;;;;;1.00;0.80;;;5.30;99.90;;;;;;5029207;28;20467;-72
2022/01/09 02:03:20;;;;;;;0.90;0.70;;;5.50;99.90;;;;;;5039560;28;21104;-70
2022/01/09 02:05:48;;;;;;;0.90;0.70;;;5.40;99.90;;;;;;5029299;28;20540;-70
2022/01/09 02:08:15;;;;;;;0.90;0.70;;;5.40;99.90;;;;;;5021451;28;21005;-71
2022/01/09 02:10:44;;;;;;;2.13;1.70;;;5.40;99.90;;;;;;5021047;28;20463;-70
2022/01/09 02:13:12;;;;;;;0.90;0.70;;;5.40;99.90;;;;;;5025036;28;20960;-70
2022/01/09 02:15:43;;;;;;;0.90;0.60;;;5.30;99.90;;;;;;5026182;28;20971;-70
2022/01/09 02:18:13;;;;;;;0.90;0.70;;;5.40;99.90;;;;;;5027501;28;20825;-69
2022/01/09 02:20:42;;;;;;;0.90;0.70;;;5.40;99.90;;;;;;5028461;28;20474;-70
2022/01/09 02:23:11;;;;;;;0.90;0.70;;;5.50;99.90;;;;;;5024403;28;20584;-70
2022/01/09 02:25:39;;;;;;;1.00;0.70;;;5.40;99.90;;;;;;5014814;28;20462;-71
2022/01/09 02:28:08;;;;;;;0.83;0.60;;;5.30;99.90;;;;;;5027116;28;20534;-71
2022/01/09 02:30:36;;;;;;;0.90;0.80;;;5.40;99.90;;;;;;5025740;28;20979;-69
2022/01/09 02:33:05;;;;;;;1.00;0.80;;;5.30;99.90;;;;;;5026421;28;20878;-70
2022/01/09 02:35:32;;;;;;;0.90;0.70;;;5.30;99.90;;;;;;5017572;28;20450;-71
2022/01/09 02:38:01;;;;;;;1.17;0.77;;;5.30;99.90;;;;;;5025164;28;20472;-69
2022/01/09 02:40:28;;;;;;;1.23;0.80;;;5.30;99.90;;;;;;5018549;28;20497;-72
2022/01/09 02:42:55;;;;;;;0.90;0.60;;;5.30;99.90;;;;;;5026643;28;20566;-71
2022/01/09 02:45:24;;;;;;;1.10;0.90;;;5.40;99.90;;;;;;5021727;28;20494;-71
2022/01/09 02:47:53;;;;;;;1.00;0.90;;;5.40;99.90;;;;;;5017009;28;20439;-70
2022/01/09 02:50:28;;;;;;;1.10;0.80;;;5.30;99.90;;;;;;5029208;28;20450;-70
2022/01/09 02:52:58;;;;;;;0.90;0.70;;;5.40;99.90;;;;;;5021052;28;20451;-70
2022/01/09 02:55:28;;;;;;;1.03;0.70;;;5.20;99.90;;;;;;5023280;28;20545;-72
2022/01/09 02:57:58;;;;;;;1.00;0.90;;;5.10;99.90;;;;;;5024969;28;20535;-70
2022/01/09 03:00:27;;;;;;;0.90;0.60;;;5.10;99.90;;;;;;5033087;28;20539;-70
2022/01/09 03:02:54;;;;;;;3.80;1.33;;;5.20;99.90;;;;;;5032361;28;20649;-71
2022/01/09 03:05:21;;;;;;;1.00;0.80;;;5.20;99.90;;;;;;5024168;28;20555;-69
2022/01/09 03:07:48;;;;;;;0.90;0.60;;;5.30;99.90;;;;;;5029934;28;20437;-71
2022/01/09 03:10:17;;;;;;;1.87;1.23;;;5.30;99.90;;;;;;5014184;28;20469;-69
2022/01/09 03:12:47;;;;;;;1.10;0.90;;;5.40;99.90;;;;;;5019826;28;20582;-71
2022/01/09 03:15:14;;;;;;;0.90;0.70;;;5.40;99.90;;;;;;5031469;28;20460;-72
2022/01/09 03:17:42;;;;;;;1.60;1.30;;;5.40;99.90;;;;;;5011027;28;21002;-71
2022/01/09 03:20:12;;;;;;;1.80;1.70;;;5.30;99.90;;;;;;5025758;28;20414;-71
2022/01/09 03:22:40;;;;;;;1.50;0.97;;;5.30;99.90;;;;;;5031616;28;20459;-71
2022/01/09 03:25:08;;;;;;;4.63;1.60;;;5.30;99.90;;;;;;5023827;28;20555;-71
2022/01/09 03:27:35;;;;;;;2.13;1.73;;;5.30;99.90;;;;;;5024905;28;20541;-70
2022/01/09 03:30:05;;;;;;;1.70;1.10;;;5.30;99.90;;;;;;5011611;28;20503;-70
2022/01/09 03:32:32;;;;;;;2.30;1.27;;;5.30;99.90;;;;;;5028383;28;20500;-71
2022/01/09 03:35:01;;;;;;;2.43;1.50;;;5.40;99.90;;;;;;5019105;28;20549;-71
2022/01/09 03:37:28;;;;;;;2.20;2.00;;;5.40;99.90;;;;;;5013667;28;20489;-71
2022/01/09 03:39:55;;;;;;;1.37;1.20;;;5.40;99.90;;;;;;5016408;28;20945;-71
2022/01/09 03:42:23;;;;;;;3.00;2.60;;;5.40;99.90;;;;;;5018780;28;20454;-70
2022/01/09 03:44:49;;;;;;;1.67;1.50;;;5.30;99.90;;;;;;5023590;28;20441;-70
2022/01/09 03:47:18;;;;;;;1.00;0.67;;;5.20;99.90;;;;;;5013550;28;20540;-71
2022/01/09 03:49:45;;;;;;;1.70;1.30;;;5.20;99.90;;;;;;5026460;28;20945;-73
2022/01/09 03:52:13;;;;;;;1.53;1.17;;;5.10;99.90;;;;;;5018545;28;20426;-72
2022/01/09 03:54:40;;;;;;;1.20;1.10;;;5.10;99.90;;;;;;5023819;28;20883;-69
2022/01/09 03:57:07;;;;;;;1.20;1.10;;;5.10;99.90;;;;;;5017626;28;20584;-71
2022/01/09 03:59:35;;;;;;;1.80;1.07;;;5.10;99.90;;;;;;5018198;28;20662;-68
2022/01/09 04:02:02;;;;;;;1.57;1.47;;;5.00;99.90;;;;;;4999657;28;20533;-71
2022/01/09 04:04:30;;;;;;;3.13;0.83;;;5.00;99.90;;;;;;4996120;28;20454;-70
2022/01/09 04:06:57;;;;;;;1.00;0.90;;;5.00;99.90;;;;;;5018740;28;20445;-70
2022/01/09 04:09:37;;;;;;;1.10;0.90;;;4.90;99.90;;;;;;5072928;22;20548;-72
2022/01/09 04:12:15;;;;;;;1.33;1.23;;;4.90;99.90;;;;;;5002614;28;20442;-70
2022/01/09 04:14:42;;;;;;;1.20;1.00;;;4.90;99.90;;;;;;5017096;28;20645;-68
2022/01/09 04:17:15;;;;;;;1.00;0.80;;;4.90;99.90;;;;;;5019340;28;20494;-70
2022/01/09 04:19:43;;;;;;;0.90;0.80;;;4.90;99.90;;;;;;5018541;28;20475;-70
2022/01/09 04:22:10;;;;;;;1.97;1.10;;;4.90;99.90;;;;;;5016214;28;20470;-69
2022/01/09 04:24:37;;;;;;;0.90;0.70;;;4.90;99.90;;;;;;5015932;28;20467;-69
2022/01/09 04:27:05;;;;;;;1.10;0.90;;;5.00;99.90;;;;;;5015344;28;20435;-70
2022/01/09 04:29:32;;;;;;;1.20;1.10;;;5.10;99.90;;;;;;5023621;28;20566;-70
2022/01/09 04:31:59;;;;;;;1.33;1.23;;;5.10;99.90;;;;;;5017575;28;20795;-70
2022/01/09 04:34:26;;;;;;;1.23;1.00;;;5.10;99.90;;;;;;5007442;28;20490;-68
2022/01/09 04:36:58;;;;;;;0.87;0.60;;;5.20;99.90;;;;;;5016675;28;20552;-69
2022/01/09 04:39:25;;;;;;;1.83;1.07;;;5.20;99.90;;;;;;5019420;28;20434;-70
2022/01/09 04:41:52;;;;;;;0.90;0.80;;;5.30;99.90;;;;;;5010858;28;20994;-70
2022/01/09 04:44:22;;;;;;;1.00;0.80;;;5.30;99.90;;;;;;5024663;28;20494;-70
2022/01/09 04:46:55;;;;;;;1.87;1.20;;;5.40;99.90;;;;;;5022365;28;21206;-68
2022/01/09 04:49:25;;;;;;;1.57;1.43;;;5.40;99.90;;;;;;5017842;28;20453;-70
2022/01/09 04:51:56;;;;;;;3.93;1.20;;;5.40;99.90;;;;;;5022263;28;20430;-69
2022/01/09 04:54:23;;;;;;;1.73;1.10;;;5.40;99.90;;;;;;5017971;28;20461;-69
2022/01/09 04:56:50;;;;;;;1.00;0.90;;;5.50;99.90;;;;;;5014839;28;24792;-69
2022/01/09 04:59:19;;;;;;;3.33;1.10;;;5.50;99.90;;;;;;5014169;28;20481;-70
2022/01/09 05:01:46;;;;;;;1.17;0.77;;;5.50;99.90;;;;;;5022232;28;20502;-70
2022/01/09 05:04:13;;;;;;;1.23;1.00;;;5.50;99.90;;;;;;5021389;28;20573;-70
2022/01/09 05:06:40;;;;;;;1.97;1.30;;;5.60;99.90;;;;;;5025836;28;20553;-73
2022/01/09 05:09:10;;;;;;;1.20;1.10;;;5.60;99.90;;;;;;5015613;28;20542;-71
2022/01/09 05:11:37;;;;;;;5.30;1.30;;;5.60;99.90;;;;;;5017066;28;20477;-70
2022/01/09 05:14:04;;;;;;;1.30;0.83;;;5.60;99.90;;;;;;5025245;28;20541;-69
2022/01/09 05:16:31;;;;;;;1.20;0.90;;;5.60;99.90;;;;;;5027173;28;20488;-70
2022/01/09 05:19:04;;;;;;;1.00;0.90;;;5.60;99.90;;;;;;5022261;28;20520;-71
2022/01/09 05:21:31;;;;;;;3.40;1.73;;;5.60;99.90;;;;;;5021819;28;20971;-69
2022/01/09 05:23:58;;;;;;;2.03;1.47;;;5.70;99.90;;;;;;5028784;28;20957;-69
2022/01/09 05:26:26;;;;;;;2.40;1.40;;;5.70;99.90;;;;;;5025217;28;20470;-70
2022/01/09 05:28:53;;;;;;;6.27;2.20;;;5.70;99.90;;;;;;5013582;28;20519;-69
2022/01/09 05:31:20;;;;;;;12.87;2.07;;;5.70;99.90;;;;;;5018401;28;20539;-68
2022/01/09 05:33:47;;;;;;;3.20;1.60;;;5.70;99.90;;;;;;5019829;28;20612;-69
2022/01/09 05:36:14;;;;;;;2.90;2.17;;;5.90;99.90;;;;;;5018248;28;20516;-71
2022/01/09 05:38:41;;;;;;;1.50;1.30;;;5.90;99.90;;;;;;5022937;28;20520;-69
2022/01/09 05:41:08;;;;;;;2.83;1.90;;;6.00;99.90;;;;;;5015392;28;21001;-71
2022/01/09 05:43:39;;;;;;;4.60;2.43;;;6.00;99.90;;;;;;5023728;28;20570;-70
2022/01/09 05:46:06;;;;;;;2.80;1.23;;;5.90;99.90;;;;;;5021983;28;20457;-68
2022/01/09 05:48:33;;;;;;;1.30;1.00;;;5.90;99.90;;;;;;5028440;28;20842;-69
2022/01/09 05:51:00;;;;;;;4.17;1.80;;;5.90;99.90;;;;;;5022047;28;20563;-69
2022/01/09 05:53:27;;;;;;;1.83;1.63;;;5.90;99.90;;;;;;5032331;28;21056;-69
2022/01/09 05:55:54;;;;;;;2.90;1.80;;;5.80;99.90;;;;;;5025765;28;20460;-70
2022/01/09 05:58:21;;;;;;;2.43;1.10;;;5.80;99.90;;;;;;5016806;28;20472;-70
2022/01/09 06:00:49;;;;;;;3.10;1.43;;;5.80;99.90;;;;;;5008531;28;21114;-72
2022/01/09 06:03:16;;;;;;;1.00;0.90;;;5.80;99.90;;;;;;5012213;28;20488;-70
2022/01/09 06:05:44;;;;;;;1.23;1.13;;;5.70;99.90;;;;;;5016622;28;20525;-71
2022/01/09 06:08:11;;;;;;;6.30;1.73;;;5.80;99.90;;;;;;5017262;28;20572;-69
2022/01/09 06:10:37;;;;;;;5.43;1.83;;;5.80;99.90;;;;;;5010732;28;20571;-69
2022/01/09 06:13:04;;;;;;;3.20;1.17;;;5.80;99.90;;;;;;5009222;28;20966;-69
2022/01/09 06:15:31;;;;;;;2.80;1.17;;;5.80;99.90;;;;;;5016451;28;22960;-71
2022/01/09 06:18:00;;;;;;;2.40;1.30;;;5.70;99.90;;;;;;5010310;28;20594;-70
2022/01/09 06:20:27;;;;;;;1.97;1.00;;;5.70;99.90;;;;;;5012481;28;20539;-69
2022/01/09 06:22:54;;;;;;;1.57;1.10;;;5.70;99.90;;;;;;5020977;28;20480;-70
2022/01/09 06:25:21;;;;;;;1.70;1.30;;;5.70;99.90;;;;;;5005468;28;20430;-71
2022/01/09 06:27:49;;;;;;;10.90;4.07;;;5.60;99.90;;;;;;5009677;28;20431;-69
2022/01/09 06:30:16;;;;;;;1.77;1.63;;;5.60;99.90;;;;;;5012702;28;20545;-70
2022/01/09 06:32:44;;;;;;;12.43;3.10;;;5.70;99.90;;;;;;5019104;28;20672;-69
2022/01/09 06:35:13;;;;;;;2.30;1.40;;;5.60;99.90;;;;;;5015725;28;20551;-72
2022/01/09 06:37:40;;;;;;;2.30;1.40;;;5.60;99.90;;;;;;5023713;28;20430;-70
2022/01/09 06:40:08;;;;;;;1.33;1.00;;;5.60;99.90;;;;;;5016494;28;24992;-71
2022/01/09 06:42:35;;;;;;;2.80;2.07;;;5.60;99.90;;;;;;5017366;28;21043;-71
2022/01/09 06:45:02;;;;;;;9.80;3.23;;;5.60;99.90;;;;;;5002957;28;20565;-72
2022/01/09 06:47:29;;;;;;;4.50;1.50;;;5.70;99.90;;;;;;5014106;28;20533;-69
2022/01/09 06:49:58;;;;;;;2.60;2.20;;;5.70;99.90;;;;;;5013358;28;20457;-70
2022/01/09 06:52:27;;;;;;;3.50;2.13;;;5.70;99.90;;;;;;5015270;28;20454;-71
2022/01/09 06:54:54;;;;;;;3.07;2.77;;;5.70;99.90;;;;;;5014010;28;20440;-70
2022/01/09 06:57:21;;;;;;;3.93;2.60;;;5.70;99.90;;;;;;5021126;28;20442;-70
2022/01/09 06:59:48;;;;;;;5.87;1.53;;;5.70;99.90;;;;;;5002074;28;20520;-72
2022/01/09 07:02:15;;;;;;;2.13;1.60;;;5.80;99.90;;;;;;5017541;28;20450;-70
2022/01/09 07:04:42;;;;;;;2.70;2.40;;;5.70;99.90;;;;;;5007865;28;20886;-69
2022/01/09 07:07:09;;;;;;;6.47;2.20;;;5.70;99.90;;;;;;5022498;28;20474;-71
2022/01/09 07:09:38;;;;;;;4.47;2.23;;;5.70;99.90;;;;;;5006757;28;20469;-69
2022/01/09 07:12:07;;;;;;;9.03;2.40;;;5.80;99.90;;;;;;5001146;28;20442;-71
2022/01/09 07:14:34;;;;;;;22.60;2.00;;;5.80;99.90;;;;;;5017735;28;20958;-70
2022/01/09 07:17:01;;;;;;;1.50;1.40;;;5.70;99.90;;;;;;5017072;28;20526;-73
2022/01/09 07:19:28;;;;;;;6.80;1.70;;;5.70;99.90;;;;;;5009430;28;20434;-71
2022/01/09 07:21:55;;;;;;;6.67;2.00;;;5.70;99.90;;;;;;5011422;28;20983;-71
2022/01/09 07:24:22;;;;;;;2.33;2.13;;;5.80;99.90;;;;;;5010357;28;20548;-69
2022/01/09 07:26:50;;;;;;;1.00;0.90;;;5.70;99.90;;;;;;5020143;28;20708;-71
2022/01/09 07:29:17;;;;;;;2.03;1.23;;;5.70;99.90;;;;;;5017394;28;20529;-70
2022/01/09 07:31:44;;;;;;;4.77;2.00;;;5.70;99.90;;;;;;5008357;28;20450;-70
2022/01/09 07:34:11;;;;;;;12.53;1.60;;;5.70;99.90;;;;;;5018049;28;20528;-70
2022/01/09 07:36:38;;;;;;;3.13;1.50;;;5.70;99.90;;;;;;5005804;28;20598;-70
2022/01/09 07:39:05;;;;;;;7.30;3.23;;;5.70;99.90;;;;;;5027745;28;20491;-69
2022/01/09 07:41:33;;;;;;;1.47;1.37;;;5.70;99.90;;;;;;5018294;28;20680;-72
2022/01/09 07:44:01;;;;;;;5.30;1.80;;;5.70;99.90;;;;;;5018976;28;21792;-70
2022/01/09 07:46:28;;;;;;;2.80;1.60;;;5.70;99.90;;;;;;5024937;28;20434;-70
2022/01/09 07:48:56;;;;;;;4.23;1.93;;;5.70;99.90;;;;;;5024393;28;21004;-70
2022/01/09 07:51:23;;;;;;;3.70;2.20;;;5.80;99.90;;;;;;5017921;28;20462;-70
2022/01/09 07:53:50;;;;;;;8.33;1.63;;;5.70;99.90;;;;;;5013694;28;20462;-70
2022/01/09 07:56:17;;;;;;;3.50;1.80;;;5.70;99.90;;;;;;5025072;28;20459;-70
2022/01/09 07:58:44;;;;;;;2.20;1.53;;;5.70;99.90;;;;;;5026375;28;20458;-70
2022/01/09 08:01:12;;;;;;;4.53;1.60;;;5.70;99.90;;;;;;5022900;28;20450;-70
2022/01/09 08:03:39;;;;;;;5.70;2.03;;;5.70;99.90;;;;;;5018168;28;20792;-73
2022/01/09 08:06:06;;;;;;;3.23;1.90;;;5.70;99.90;;;;;;5020463;28;20534;-70
2022/01/09 08:08:33;;;;;;;2.27;1.57;;;5.70;99.90;;;;;;5032693;28;20455;-70
2022/01/09 08:11:00;;;;;;;2.20;1.43;;;5.70;99.90;;;;;;5020746;28;20473;-70
2022/01/09 08:13:27;;;;;;;6.70;1.80;;;5.70;99.90;;;;;;5010170;28;21033;-70
2022/01/09 08:15:54;;;;;;;4.80;1.83;;;5.70;99.90;;;;;;5013588;28;22497;-70
2022/01/09 08:18:23;;;;;;;2.10;1.43;;;5.70;99.90;;;;;;5018900;28;21043;-70
2022/01/09 08:20:50;;;;;;;3.90;3.60;;;5.70;99.90;;;;;;5026543;28;20569;-69
2022/01/09 08:23:17;;;;;;;2.37;1.90;;;5.70;99.90;;;;;;5012942;28;20945;-72
2022/01/09 08:25:44;;;;;;;6.23;2.40;;;5.70;99.90;;;;;;5022002;28;20644;-71
2022/01/09 08:28:11;;;;;;;3.97;2.13;;;5.70;99.90;;;;;;5024992;28;20451;-69
2022/01/09 08:30:38;;;;;;;8.20;5.10;;;5.70;99.90;;;;;;5021950;28;20519;-70
2022/01/09 08:33:05;;;;;;;1.73;1.37;;;5.80;99.90;;;;;;5021432;28;20461;-74
2022/01/09 08:35:34;;;;;;;1.83;1.37;;;5.80;99.90;;;;;;5017706;28;20607;-69
2022/01/09 08:38:01;;;;;;;8.23;1.90;;;5.70;99.90;;;;;;5026068;28;20594;-68
2022/01/09 08:40:28;;;;;;;1.93;1.43;;;5.70;99.90;;;;;;5026244;28;20534;-70
2022/01/09 08:42:55;;;;;;;3.10;2.33;;;5.80;99.90;;;;;;5020880;28;20955;-70
2022/01/09 08:45:23;;;;;;;2.33;1.83;;;5.80;99.90;;;;;;5023471;28;20466;-70
2022/01/09 08:47:50;;;;;;;3.80;2.80;;;5.80;99.90;;;;;;5021211;28;20884;-68
2022/01/09 08:50:19;;;;;;;4.00;2.30;;;5.80;99.90;;;;;;5016315;28;20585;-70
2022/01/09 08:52:48;;;;;;;6.33;2.67;;;5.90;99.90;;;;;;5008535;28;20524;-71
2022/01/09 08:55:16;;;;;;;13.13;2.37;;;5.80;99.90;;;;;;5010630;28;20433;-68
2022/01/09 08:57:43;;;;;;;1.73;1.43;;;5.80;99.90;;;;;;5016131;28;21127;-71
2022/01/09 09:00:11;;;;;;;18.37;3.67;;;5.90;99.90;;;;;;5019517;28;20547;-69
2022/01/09 09:02:38;;;;;;;3.50;2.20;;;6.00;99.90;;;;;;5010976;28;21080;-70
2022/01/09 09:05:06;;;;;;;1.40;1.10;;;5.90;99.90;;;;;;5012698;28;21581;-69
2022/01/09 09:07:33;;;;;;;1.97;1.83;;;5.80;99.90;;;;;;5022598;28;20930;-71
2022/01/09 09:10:04;;;;;;;3.27;2.47;;;5.90;99.90;;;;;;5023874;28;20502;-69
2022/01/09 09:12:31;;;;;;;4.47;1.77;;;5.90;99.90;;;;;;5016418;28;20489;-68
2022/01/09 09:14:58;;;;;;;4.30;1.57;;;5.90;99.90;;;;;;5023025;28;20468;-70
2022/01/09 09:17:26;;;;;;;12.07;3.63;;;6.00;99.90;;;;;;5012104;28;21002;-71
2022/01/09 09:19:52;;;;;;;3.10;2.83;;;5.90;99.90;;;;;;5013424;28;20610;-69
2022/01/09 09:22:20;;;;;;;7.10;3.63;;;6.00;99.90;;;;;;5006057;28;20438;-71
2022/01/09 09:24:47;;;;;;;12.07;2.70;;;6.00;99.90;;;;;;5012461;28;20595;-70
2022/01/09 09:27:15;;;;;;;4.30;1.20;;;6.00;99.90;;;;;;5013147;28;20873;-70
2022/01/09 09:29:42;;;;;;;13.20;2.40;;;6.00;99.90;;;;;;5012613;28;20475;-70
2022/01/09 09:32:09;;;;;;;16.07;2.70;;;6.00;99.90;;;;;;5006010;28;20478;-71
2022/01/09 09:34:38;;;;;;;5.50;2.30;;;6.00;99.90;;;;;;5007599;28;20464;-74
2022/01/09 09:37:06;;;;;;;6.03;2.17;;;6.10;99.90;;;;;;5010315;28;20463;-71
2022/01/09 09:39:33;;;;;;;2.80;1.80;;;6.10;99.90;;;;;;5007921;28;20451;-69
2022/01/09 09:42:01;;;;;;;10.10;2.47;;;6.00;99.90;;;;;;5009779;28;20447;-69
2022/01/09 09:44:30;;;;;;;11.53;3.03;;;6.00;99.90;;;;;;5006274;28;20442;-71
2022/01/09 09:46:57;;;;;;;4.50;2.00;;;5.90;99.90;;;;;;5015233;28;20463;-70
2022/01/09 09:49:24;;;;;;;10.67;2.33;;;6.10;99.90;;;;;;4998533;28;20476;-70
2022/01/09 09:51:51;;;;;;;3.00;2.07;;;6.00;99.90;;;;;;5018292;28;20496;-71
2022/01/09 09:54:18;;;;;;;3.60;2.23;;;6.00;99.90;;;;;;5009619;28;20969;-71
2022/01/09 09:56:45;;;;;;;1.83;1.57;;;6.10;99.90;;;;;;5017299;28;20499;-70
2022/01/09 09:59:12;;;;;;;4.47;4.10;;;6.20;99.90;;;;;;5008883;28;20815;-69
2022/01/09 10:01:41;;;;;;;7.40;2.40;;;6.30;99.90;;;;;;5003257;28;20796;-72
2022/01/09 10:04:10;;;;;;;1.87;1.23;;;6.50;99.90;;;;;;5011739;28;20580;-69
2022/01/09 10:06:39;;;;;;;2.23;1.53;;;6.50;99.90;;;;;;5018642;28;20460;-69
2022/01/09 10:09:08;;;;;;;5.77;2.03;;;6.40;99.90;;;;;;5007243;28;20931;-69
2022/01/09 10:11:50;;;;;;;4.10;1.90;;;6.40;99.90;;;;;;5012597;28;20495;-71
2022/01/09 10:14:21;;;;;;;11.90;3.20;;;6.40;99.90;;;;;;5000825;28;27067;-69
2022/01/09 10:17:11;;;;;;;1.30;1.20;;;6.50;99.90;;;;;;5003794;28;20936;-71
2022/01/09 10:19:47;;;;;;;6.40;2.07;;;6.50;99.90;;;;;;5016342;28;20560;-69
2022/01/09 10:22:25;;;;;;;5.90;2.77;;;6.40;99.90;;;;;;5018254;28;20495;-71
2022/01/09 10:24:53;;;;;;;6.80;2.00;;;6.50;99.90;;;;;;5019103;28;20483;-69
2022/01/09 10:27:31;;;;;;;2.00;1.80;;;6.60;99.90;;;;;;5017470;28;21446;-69
2022/01/09 10:29:59;;;;;;;1.67;1.00;;;6.60;99.90;;;;;;5019271;28;20450;-71
2022/01/09 10:32:31;;;;;;;2.90;2.70;;;6.40;99.90;;;;;;5009619;28;20545;-72
2022/01/09 10:35:09;;;;;;;2.43;1.53;;;6.40;99.90;;;;;;5021962;28;20453;-72
2022/01/09 10:37:37;;;;;;;8.60;2.00;;;6.40;99.90;;;;;;5028104;28;20474;-70
2022/01/09 10:40:08;;;;;;;4.23;2.77;;;6.50;99.90;;;;;;5019327;28;20621;-69
2022/01/09 10:42:35;;;;;;;2.70;1.97;;;6.50;99.90;;;;;;5021040;28;20460;-70
2022/01/09 10:45:23;;;;;;;7.00;2.60;;;6.50;99.90;;;;;;5014906;28;20482;-69
2022/01/09 10:47:55;;;;;;;4.77;1.80;;;6.40;99.90;;;;;;5022050;28;20521;-69
2022/01/09 10:50:30;;;;;;;3.40;2.60;;;6.50;99.90;;;;;;5022172;28;20503;-70
2022/01/09 10:53:18;;;;;;;2.87;2.60;;;6.50;99.90;;;;;;5013070;28;20524;-72
2022/01/09 10:55:46;;;;;;;3.00;1.57;;;6.60;99.90;;;;;;5012662;28;20455;-70
2022/01/09 10:58:18;;;;;;;4.03;1.77;;;6.60;99.90;;;;;;5016139;28;20991;-70
2022/01/09 11:00:48;;;;;;;5.60;3.10;;;6.60;99.90;;;;;;5024234;28;20515;-69
2022/01/09 11:03:16;;;;;;;8.33;3.73;;;6.50;99.90;;;;;;5011199;28;20433;-70
2022/01/09 11:05:46;;;;;;;5.43;2.90;;;6.60;99.90;;;;;;5010837;28;20544;-75
2022/01/09 11:08:15;;;;;;;2.70;2.03;;;6.70;99.90;;;;;;5025219;28;20501;-70
2022/01/09 11:10:43;;;;;;;1.40;1.20;;;6.70;99.90;;;;;;5001371;28;20557;-71
2022/01/09 11:13:15;;;;;;;5.40;3.30;;;6.60;99.90;;;;;;5006120;28;20460;-71
2022/01/09 11:16:32;;;;;;;5.10;2.63;;;6.50;99.90;;;;;;5020857;28;20437;-71
2022/01/09 11:18:32;;;;;;;2.60;1.33;;;6.60;99.90;;;;;;5005374;28;20428;-71
2022/01/09 11:23:44;;;;;;;3.43;1.97;;;6.60;99.90;;;;;;5015881;28;20521;-70
2022/01/09 11:26:16;;;;;;;4.53;2.53;;;6.60;99.90;;;;;;5061888;28;20477;-69
2022/01/09 11:28:46;;;;;;;16.60;2.87;;;6.70;99.90;;;;;;5044169;28;20789;-70
2022/01/09 11:31:27;;;;;;;5.67;1.93;;;6.70;99.90;;;;;;5039534;28;21056;-68
2022/01/09 11:34:08;;;;;;;4.40;3.03;;;6.80;99.90;;;;;;5034216;28;20452;-68
2022/01/09 11:36:42;;;;;;;8.70;1.80;;;6.90;99.90;;;;;;5032881;28;20913;-67
2022/01/09 11:39:17;;;;;;;2.90;2.70;;;6.80;99.90;;;;;;5031391;28;20515;-68
2022/01/09 11:41:46;;;;;;;2.53;1.40;;;6.70;99.90;;;;;;5052853;28;20559;-67
2022/01/09 11:44:16;;;;;;;9.97;1.80;;;6.70;99.90;;;;;;5053835;28;20463;-67
2022/01/09 11:46:58;;;;;;;2.97;1.80;;;6.80;99.90;;;;;;5031341;28;21147;-67
2022/01/09 11:49:27;;;;;;;3.17;2.33;;;6.70;99.90;;;;;;5043091;28;20501;-69
2022/01/09 11:51:56;;;;;;;3.90;1.90;;;6.70;99.90;;;;;;5034403;28;20475;-69
2022/01/09 11:54:25;;;;;;;2.70;1.40;;;6.70;99.90;;;;;;5046616;28;21119;-70
2022/01/09 11:57:06;;;;;;;13.10;2.47;;;6.80;99.90;;;;;;5051391;28;20597;-70
2022/01/09 11:59:35;;;;;;;3.10;1.93;;;6.90;99.90;;;;;;5047394;28;20469;-70
2022/01/09 12:02:04;;;;;;;6.50;2.93;;;6.90;99.90;;;;;;5037769;28;20453;-70
2022/01/09 12:04:55;;;;;;;4.27;2.40;;;6.90;99.90;;;;;;5044491;28;20448;-70
2022/01/09 12:08:03;;;;;;;4.73;3.70;;;7.00;99.90;;;;;;5047342;28;21002;-68
2022/01/09 12:10:35;;;;;;;2.80;2.40;;;6.90;99.90;;;;;;5045828;28;20469;-70
2022/01/09 12:13:04;;;;;;;2.70;2.20;;;6.80;99.90;;;;;;5041951;28;20501;-68
2022/01/09 12:15:39;;;;;;;8.70;3.40;;;6.80;99.90;;;;;;5056923;28;20454;-70
2022/01/09 12:18:10;;;;;;;4.67;4.20;;;6.80;99.90;;;;;;5046115;28;23261;-68
2022/01/09 12:20:42;;;;;;;2.77;2.07;;;6.70;99.90;;;;;;5050597;28;20464;-69
2022/01/09 12:23:24;;;;;;;10.83;3.43;;;6.60;99.90;;;;;;5050395;28;20472;-67
2022/01/09 12:25:55;;;;;;;5.87;3.53;;;6.60;99.90;;;;;;5028945;28;21088;-68
2022/01/09 12:28:37;;;;;;;11.50;4.67;;;6.60;99.90;;;;;;5045605;28;20453;-68
2022/01/09 12:31:05;;;;;;;2.73;2.17;;;6.60;99.90;;;;;;5059590;28;20918;-68
2022/01/09 12:33:50;;;;;;;3.10;2.03;;;6.50;99.90;;;;;;5052103;28;20521;-69
2022/01/09 12:36:30;;;;;;;3.87;2.40;;;6.40;99.90;;;;;;5054549;28;20553;-70
2022/01/09 12:39:02;;;;;;;2.50;2.20;;;6.50;99.90;;;;;;5051295;28;20454;-69
2022/01/09 12:41:32;;;;;;;6.63;2.90;;;6.50;99.90;;;;;;5039308;28;20981;-66
2022/01/09 12:44:04;;;;;;;3.40;2.50;;;6.50;99.90;;;;;;5039289;28;21174;-68
2022/01/09 12:46:34;;;;;;;1.87;1.73;;;6.50;99.90;;;;;;5052630;28;20805;-68
2022/01/09 12:49:03;;;;;;;4.50;2.40;;;6.60;99.90;;;;;;5049307;28;20472;-67
2022/01/09 12:51:32;;;;;;;4.40;2.40;;;6.60;99.90;;;;;;5062483;28;20523;-69
2022/01/09 12:54:01;;;;;;;9.13;2.60;;;6.60;99.90;;;;;;5058179;28;20436;-67
2022/01/09 12:56:29;;;;;;;19.03;4.50;;;6.70;99.90;;;;;;5050969;28;20425;-68
2022/01/09 12:58:58;;;;;;;6.00;2.87;;;6.70;99.90;;;;;;5041567;28;20448;-68
2022/01/09 13:01:27;;;;;;;21.87;3.77;;;6.90;99.90;;;;;;5041742;28;21270;-68
2022/01/09 13:03:55;;;;;;;5.83;2.50;;;7.00;99.90;;;;;;5054536;28;20560;-69
2022/01/09 13:06:25;;;;;;;2.27;2.00;;;6.90;99.90;;;;;;5056044;28;20440;-70